Time;durP1;ratioP1;P1;durP2;ratioP2;P2;SDS_P1;SDS_P2;PMS_P1;PMS_P2;Temp;Humidity;BMP_temperature;BMP_pressure;BME280_temperature;BME280_humidity;BME280_pressure;Samples;Min_cycle;Max_cycle;Signal;HPM_P1;HPM_P2
2023/04/17 00:00:49;;;;;;;29.90;22.60;;;;;;;;;;5073965;28;20448;-68
2023/04/17 00:03:16;;;;;;;25.17;21.37;;;;;;;;;;5074166;28;20481;-68
2023/04/17 00:05:44;;;;;;;30.20;23.80;;;;;;;;;;5074312;28;20436;-68
2023/04/17 00:08:11;;;;;;;29.77;22.23;;;;;;;;;;5074187;28;20449;-68
2023/04/17 00:10:38;;;;;;;28.17;22.30;;;;;;;;;;5074047;28;20449;-68
2023/04/17 00:13:06;;;;;;;30.00;21.53;;;;;;;;;;5073787;28;20455;-68
2023/04/17 00:15:34;;;;;;;27.43;22.77;;;;;;;;;;5073908;28;20479;-68
2023/04/17 00:18:01;;;;;;;26.60;22.30;;;;;;;;;;5074111;28;20793;-68
2023/04/17 00:20:28;;;;;;;30.10;22.97;;;;;;;;;;5074306;28;20498;-68
2023/04/17 00:22:56;;;;;;;28.03;22.83;;;;;;;;;;5073975;28;20471;-68
2023/04/17 00:25:23;;;;;;;27.10;21.97;;;;;;;;;;5073550;28;20462;-68
2023/04/17 00:27:50;;;;;;;26.13;22.13;;;;;;;;;;5073931;28;20451;-68
2023/04/17 00:30:17;;;;;;;24.77;21.07;;;;;;;;;;5073768;28;20441;-68
2023/04/17 00:32:46;;;;;;;27.53;21.50;;;;;;;;;;5073711;28;20456;-68
2023/04/17 00:35:13;;;;;;;30.83;23.00;;;;;;;;;;5073357;28;20476;-68
2023/04/17 00:37:40;;;;;;;27.23;22.03;;;;;;;;;;5073682;28;20452;-68
2023/04/17 00:40:08;;;;;;;28.30;21.40;;;;;;;;;;5073876;28;20436;-68
2023/04/17 00:42:35;;;;;;;26.43;21.63;;;;;;;;;;5073703;28;20441;-68
2023/04/17 00:45:04;;;;;;;31.10;22.97;;;;;;;;;;5073389;28;20446;-68
2023/04/17 00:47:31;;;;;;;27.60;22.10;;;;;;;;;;5073580;28;20448;-68
2023/04/17 00:50:00;;;;;;;27.27;22.63;;;;;;;;;;5073670;28;20789;-68
2023/04/17 00:52:29;;;;;;;27.17;21.17;;;;;;;;;;5073258;28;20937;-68
2023/04/17 00:54:56;;;;;;;29.50;23.07;;;;;;;;;;5073549;28;20857;-68
2023/04/17 00:57:24;;;;;;;27.43;21.97;;;;;;;;;;5073488;28;20442;-68
2023/04/17 00:59:51;;;;;;;28.63;23.13;;;;;;;;;;5073537;28;20524;-68
2023/04/17 01:02:19;;;;;;;29.23;24.10;;;;;;;;;;5072953;28;20441;-68
2023/04/17 01:04:46;;;;;;;31.87;23.60;;;;;;;;;;5073124;28;20494;-68
2023/04/17 01:07:15;;;;;;;29.20;24.40;;;;;;;;;;5073346;28;20535;-68
2023/04/17 01:09:42;;;;;;;26.33;23.00;;;;;;;;;;5073392;28;20539;-68
2023/04/17 01:12:19;;;;;;;28.57;23.77;;;;;;;;;;5073461;28;20453;-68
2023/04/17 01:14:46;;;;;;;33.47;24.20;;;;;;;;;;5073075;28;20473;-68
2023/04/17 01:17:14;;;;;;;30.70;23.93;;;;;;;;;;5073262;28;20471;-68
2023/04/17 01:19:41;;;;;;;32.03;23.67;;;;;;;;;;5073730;28;20448;-68
2023/04/17 01:22:08;;;;;;;35.90;27.67;;;;;;;;;;5072911;28;20441;-68
2023/04/17 01:24:37;;;;;;;36.00;27.63;;;;;;;;;;5073545;28;20457;-68
2023/04/17 01:27:05;;;;;;;29.73;24.50;;;;;;;;;;5072879;28;20450;-68
2023/04/17 01:29:32;;;;;;;35.33;26.03;;;;;;;;;;5073016;28;20910;-68
2023/04/17 01:31:59;;;;;;;32.17;25.97;;;;;;;;;;5073111;28;20469;-68
2023/04/17 01:34:27;;;;;;;32.93;25.20;;;;;;;;;;5073462;28;20462;-68
2023/04/17 01:36:54;;;;;;;33.87;27.00;;;;;;;;;;5072657;28;20535;-68
2023/04/17 01:39:21;;;;;;;32.33;25.87;;;;;;;;;;5072790;28;20440;-68
2023/04/17 01:41:50;;;;;;;32.30;26.37;;;;;;;;;;5072702;28;20440;-68
2023/04/17 01:44:17;;;;;;;38.47;25.93;;;;;;;;;;5073076;28;20457;-68
2023/04/17 01:46:44;;;;;;;33.83;24.50;;;;;;;;;;5072980;28;20443;-68
2023/04/17 01:49:12;;;;;;;37.07;27.13;;;;;;;;;;5076111;28;20586;-68
2023/04/17 01:51:40;;;;;;;33.67;27.37;;;;;;;;;;5076785;28;20438;-68
2023/04/17 01:54:07;;;;;;;34.83;26.07;;;;;;;;;;5076465;28;20453;-68
2023/04/17 01:56:34;;;;;;;40.57;26.77;;;;;;;;;;5076618;28;20480;-68
2023/04/17 01:59:03;;;;;;;35.30;25.87;;;;;;;;;;5076879;28;20456;-68
2023/04/17 02:01:30;;;;;;;39.83;27.40;;;;;;;;;;5076179;28;20449;-68
2023/04/17 02:03:57;;;;;;;35.70;26.40;;;;;;;;;;5076026;28;20484;-68
2023/04/17 02:06:25;;;;;;;37.50;26.07;;;;;;;;;;5076564;28;20437;-68
2023/04/17 02:08:52;;;;;;;35.83;26.97;;;;;;;;;;5076510;28;20536;-68
2023/04/17 02:11:20;;;;;;;34.87;25.73;;;;;;;;;;5076458;28;20447;-67
2023/04/17 02:13:47;;;;;;;31.10;23.40;;;;;;;;;;5075992;28;20453;-68
2023/04/17 02:16:15;;;;;;;34.40;25.77;;;;;;;;;;5076073;28;20479;-68
2023/04/17 02:18:43;;;;;;;35.77;27.37;;;;;;;;;;5075953;28;20445;-68
2023/04/17 02:21:10;;;;;;;32.47;25.27;;;;;;;;;;5075999;28;20450;-68
2023/04/17 02:23:37;;;;;;;33.33;25.70;;;;;;;;;;5076332;28;20477;-68
2023/04/17 02:26:04;;;;;;;33.20;26.20;;;;;;;;;;5076246;28;20447;-68
2023/04/17 02:28:32;;;;;;;31.93;25.73;;;;;;;;;;5075753;28;20449;-68
2023/04/17 02:30:59;;;;;;;28.80;25.27;;;;;;;;;;5076107;28;20451;-68
2023/04/17 02:33:27;;;;;;;43.73;25.17;;;;;;;;;;5075578;28;20707;-68
2023/04/17 02:35:55;;;;;;;30.30;24.33;;;;;;;;;;5075633;28;21027;-68
2023/04/17 02:38:22;;;;;;;30.33;24.20;;;;;;;;;;5076151;28;20488;-68
2023/04/17 02:40:49;;;;;;;33.00;25.37;;;;;;;;;;5076129;28;20447;-68
2023/04/17 02:43:17;;;;;;;38.20;25.37;;;;;;;;;;5075978;28;20441;-68
2023/04/17 02:45:44;;;;;;;39.40;25.00;;;;;;;;;;5075613;28;20453;-68
2023/04/17 02:48:11;;;;;;;36.53;24.97;;;;;;;;;;5075398;28;20453;-68
2023/04/17 02:50:40;;;;;;;31.43;24.50;;;;;;;;;;5075468;28;20452;-68
2023/04/17 02:53:07;;;;;;;32.20;24.63;;;;;;;;;;5075977;28;20441;-68
2023/04/17 02:55:35;;;;;;;31.10;24.90;;;;;;;;;;5075369;28;20998;-68
2023/04/17 02:58:02;;;;;;;34.03;25.20;;;;;;;;;;5075614;28;20927;-68
2023/04/17 03:00:29;;;;;;;36.43;24.10;;;;;;;;;;5074894;28;20451;-68
2023/04/17 03:02:56;;;;;;;32.57;24.23;;;;;;;;;;5075225;28;20556;-68
2023/04/17 03:05:24;;;;;;;31.43;23.97;;;;;;;;;;5075762;28;20434;-68
2023/04/17 03:07:53;;;;;;;27.33;22.97;;;;;;;;;;5075671;28;20852;-68
2023/04/17 03:10:20;;;;;;;34.10;24.80;;;;;;;;;;5075353;28;20444;-68
2023/04/17 03:12:47;;;;;;;30.30;23.40;;;;;;;;;;5075264;28;20470;-68
2023/04/17 03:15:14;;;;;;;32.00;24.70;;;;;;;;;;5075001;28;20481;-68
2023/04/17 03:17:41;;;;;;;30.87;25.17;;;;;;;;;;5074937;28;21017;-68
2023/04/17 03:20:09;;;;;;;29.63;23.67;;;;;;;;;;5074897;28;20448;-68
2023/04/17 03:22:36;;;;;;;30.63;24.60;;;;;;;;;;5074849;28;20457;-68
2023/04/17 03:25:05;;;;;;;30.73;23.60;;;;;;;;;;5075170;28;20543;-68
2023/04/17 03:27:33;;;;;;;35.53;26.03;;;;;;;;;;5075802;28;20442;-68
2023/04/17 03:30:00;;;;;;;30.33;23.97;;;;;;;;;;5074731;28;20485;-68
2023/04/17 03:32:27;;;;;;;29.50;23.67;;;;;;;;;;5074560;28;20441;-68
2023/04/17 03:34:54;;;;;;;32.73;25.47;;;;;;;;;;5074438;28;20456;-68
2023/04/17 03:37:21;;;;;;;34.27;24.13;;;;;;;;;;5074537;28;20452;-68
2023/04/17 03:39:49;;;;;;;30.77;25.43;;;;;;;;;;5074747;28;20442;-67
2023/04/17 03:42:17;;;;;;;35.60;24.60;;;;;;;;;;5074484;28;20476;-68
2023/04/17 03:44:45;;;;;;;34.57;26.03;;;;;;;;;;5074321;28;20440;-68
2023/04/17 03:47:12;;;;;;;30.13;24.23;;;;;;;;;;5074662;28;20461;-68
2023/04/17 03:49:39;;;;;;;32.00;24.67;;;;;;;;;;5074249;28;20953;-68
2023/04/17 03:52:07;;;;;;;32.43;23.87;;;;;;;;;;5079364;28;20800;-69
2023/04/17 03:54:34;;;;;;;32.80;25.20;;;;;;;;;;5094206;28;20442;-68
2023/04/17 03:57:02;;;;;;;31.53;25.63;;;;;;;;;;5094560;28;20474;-68
2023/04/17 03:59:31;;;;;;;33.10;25.73;;;;;;;;;;5094555;28;20446;-68
2023/04/17 04:01:58;;;;;;;37.33;26.77;;;;;;;;;;5094628;28;20439;-68
2023/04/17 04:04:25;;;;;;;33.67;25.40;;;;;;;;;;5094415;28;20465;-69
2023/04/17 04:06:56;;;;;;;36.23;28.33;;;;;;;;;;5094508;28;20455;-68
2023/04/17 04:09:24;;;;;;;36.00;25.77;;;;;;;;;;5094587;28;20820;-68
2023/04/17 04:11:51;;;;;;;36.03;26.27;;;;;;;;;;5093697;28;20779;-68
2023/04/17 04:14:18;;;;;;;34.47;27.57;;;;;;;;;;5093978;28;20444;-68
2023/04/17 04:16:47;;;;;;;37.83;28.87;;;;;;;;;;5093991;28;20996;-68
2023/04/17 04:19:14;;;;;;;33.80;28.30;;;;;;;;;;5094206;28;20447;-68
2023/04/17 04:21:42;;;;;;;37.47;27.43;;;;;;;;;;5094303;28;20448;-68
2023/04/17 04:24:12;;;;;;;36.30;26.73;;;;;;;;;;5094314;28;20451;-68
2023/04/17 04:26:40;;;;;;;38.37;27.70;;;;;;;;;;5094135;28;20455;-70
2023/04/17 04:29:10;;;;;;;41.27;29.77;;;;;;;;;;5094051;28;20806;-68
2023/04/17 04:31:37;;;;;;;39.60;28.77;;;;;;;;;;5094116;28;20490;-70
2023/04/17 04:34:07;;;;;;;41.40;29.77;;;;;;;;;;5093650;28;20466;-68
2023/04/17 04:36:40;;;;;;;40.07;30.63;;;;;;;;;;5093665;28;20466;-68
2023/04/17 04:39:08;;;;;;;39.90;29.30;;;;;;;;;;5094263;28;20440;-68
2023/04/17 04:41:35;;;;;;;42.50;31.90;;;;;;;;;;5093486;28;20443;-68
2023/04/17 04:44:03;;;;;;;41.93;30.53;;;;;;;;;;5093514;28;20534;-69
2023/04/17 04:46:30;;;;;;;48.07;31.67;;;;;;;;;;5093614;28;20480;-69
2023/04/17 04:48:57;;;;;;;40.50;31.50;;;;;;;;;;5093392;28;20445;-69
2023/04/17 04:51:26;;;;;;;41.43;31.00;;;;;;;;;;5093722;28;20446;-69
2023/04/17 04:53:53;;;;;;;41.80;31.40;;;;;;;;;;5053088;28;20460;-69
2023/04/17 04:56:21;;;;;;;47.43;34.27;;;;;;;;;;5052999;28;20477;-69
2023/04/17 04:58:48;;;;;;;47.67;33.58;;;;;;;;;;5053084;28;20449;-70
2023/04/17 05:01:16;;;;;;;44.70;32.77;;;;;;;;;;5053018;28;20209;-69
2023/04/17 05:03:43;;;;;;;44.00;32.65;;;;;;;;;;5053248;28;20478;-69
2023/04/17 05:06:12;;;;;;;42.53;32.92;;;;;;;;;;5053277;28;20559;-68
2023/04/17 05:08:41;;;;;;;48.40;32.17;;;;;;;;;;5053389;28;20195;-69
2023/04/17 05:11:08;;;;;;;48.60;34.78;;;;;;;;;;5053349;28;20206;-69
2023/04/17 05:13:35;;;;;;;52.53;34.23;;;;;;;;;;5053332;28;20194;-69
2023/04/17 05:16:03;;;;;;;46.13;35.90;;;;;;;;;;5053086;28;20488;-69
2023/04/17 05:18:30;;;;;;;49.95;36.85;;;;;;;;;;5053789;28;20191;-69
2023/04/17 05:20:57;;;;;;;55.83;36.20;;;;;;;;;;5053016;28;20196;-69
2023/04/17 05:23:24;;;;;;;51.42;37.22;;;;;;;;;;5089193;28;20284;-69
2023/04/17 05:25:52;;;;;;;47.15;35.42;;;;;;;;;;5097544;28;20193;-68
2023/04/17 05:28:20;;;;;;;49.47;36.90;;;;;;;;;;5097321;28;20199;-68
2023/04/17 05:30:47;;;;;;;52.25;36.55;;;;;;;;;;5097568;28;20193;-69
2023/04/17 05:33:14;;;;;;;59.90;36.88;;;;;;;;;;5097569;28;20194;-69
2023/04/17 05:35:42;;;;;;;52.15;35.60;;;;;;;;;;5097286;28;20532;-68
2023/04/17 05:38:09;;;;;;;53.00;36.53;;;;;;;;;;5097403;28;20194;-69
2023/04/17 05:40:36;;;;;;;50.77;36.40;;;;;;;;;;5096939;28;20241;-68
2023/04/17 05:43:08;;;;;;;51.58;33.63;;;;;;;;;;5097349;28;20791;-69
2023/04/17 05:45:36;;;;;;;49.73;35.50;;;;;;;;;;5096910;28;20251;-69
2023/04/17 05:48:03;;;;;;;53.85;36.72;;;;;;;;;;5097223;28;20439;-69
2023/04/17 05:50:37;;;;;;;47.88;38.05;;;;;;;;;;5096784;28;20655;-68
2023/04/17 05:53:04;;;;;;;63.20;43.10;;;;;;;;;;5097294;28;20185;-68
2023/04/17 05:55:31;;;;;;;65.88;42.20;;;;;;;;;;5096936;28;20221;-69
2023/04/17 05:57:59;;;;;;;54.90;37.77;;;;;;;;;;5096949;28;20221;-68
2023/04/17 06:00:27;;;;;;;52.13;36.60;;;;;;;;;;5096946;28;20461;-68
2023/04/17 06:02:55;;;;;;;53.28;36.72;;;;;;;;;;5096934;28;20198;-68
2023/04/17 06:05:22;;;;;;;51.40;36.47;;;;;;;;;;5097182;28;20186;-68
2023/04/17 06:07:49;;;;;;;48.15;37.53;;;;;;;;;;5097294;28;20450;-68
2023/04/17 06:10:16;;;;;;;48.10;34.85;;;;;;;;;;5096816;28;20251;-68
2023/04/17 06:12:44;;;;;;;48.95;36.15;;;;;;;;;;5096493;28;20209;-68
2023/04/17 06:15:11;;;;;;;54.67;34.95;;;;;;;;;;5096291;28;20647;-68
2023/04/17 06:17:40;;;;;;;47.08;33.85;;;;;;;;;;5096763;28;20707;-68
2023/04/17 06:20:09;;;;;;;46.37;34.23;;;;;;;;;;5096570;28;20284;-67
2023/04/17 06:22:36;;;;;;;44.08;34.28;;;;;;;;;;5096666;28;20786;-68
2023/04/17 06:25:03;;;;;;;47.85;36.00;;;;;;;;;;5096438;28;20284;-68
2023/04/17 06:27:31;;;;;;;51.17;35.70;;;;;;;;;;5096128;28;20208;-68
2023/04/17 06:29:58;;;;;;;50.73;33.93;;;;;;;;;;5096145;28;20193;-68
2023/04/17 06:32:25;;;;;;;44.95;33.63;;;;;;;;;;5096023;28;20447;-68
2023/04/17 06:34:54;;;;;;;45.17;32.22;;;;;;;;;;5095270;28;20198;-68
2023/04/17 06:37:21;;;;;;;46.90;33.90;;;;;;;;;;5096164;28;20550;-68
2023/04/17 06:39:48;;;;;;;40.20;32.20;;;;;;;;;;5096299;28;20451;-67
2023/04/17 06:42:15;;;;;;;41.35;32.47;;;;;;;;;;5096138;28;20440;-68
2023/04/17 06:44:43;;;;;;;43.13;32.53;;;;;;;;;;5096979;28;20189;-67
2023/04/17 06:47:10;;;;;;;46.07;32.23;;;;;;;;;;5095711;28;20941;-68
2023/04/17 06:49:37;;;;;;;43.35;31.90;;;;;;;;;;5095772;28;20445;-67
2023/04/17 06:52:06;;;;;;;47.13;33.73;;;;;;;;;;5096061;28;20197;-67
2023/04/17 06:54:33;;;;;;;46.23;32.47;;;;;;;;;;5095948;28;20450;-67
2023/04/17 06:57:00;;;;;;;39.95;31.23;;;;;;;;;;5096023;28;20583;-68
2023/04/17 06:59:27;;;;;;;39.33;30.80;;;;;;;;;;5096338;28;20539;-68
2023/04/17 07:01:55;;;;;;;43.05;33.92;;;;;;;;;;5095474;28;20924;-68
2023/04/17 07:04:22;;;;;;;41.93;30.93;;;;;;;;;;5095679;28;20679;-68
2023/04/17 07:06:49;;;;;;;40.28;29.85;;;;;;;;;;5095318;28;20447;-68
2023/04/17 07:09:18;;;;;;;43.78;31.33;;;;;;;;;;5095939;28;20204;-68
2023/04/17 07:11:45;;;;;;;41.20;32.17;;;;;;;;;;5095247;28;20194;-68
2023/04/17 07:14:12;;;;;;;43.15;33.72;;;;;;;;;;5095642;28;20443;-68
2023/04/17 07:16:39;;;;;;;42.40;33.07;;;;;;;;;;5095006;28;20232;-68
2023/04/17 07:19:06;;;;;;;40.23;29.90;;;;;;;;;;5095496;28;20475;-68
2023/04/17 07:21:34;;;;;;;42.42;32.25;;;;;;;;;;5095064;28;20450;-68
2023/04/17 07:24:01;;;;;;;43.33;31.80;;;;;;;;;;5095954;28;20190;-68
2023/04/17 07:26:30;;;;;;;42.30;32.00;;;;;;;;;;5094895;28;20452;-68
2023/04/17 07:28:57;;;;;;;40.80;29.67;;;;;;;;;;5095868;28;20440;-68
2023/04/17 07:31:27;;;;;;;43.57;31.00;;;;;;;;;;5095640;28;20774;-68
2023/04/17 07:33:54;;;;;;;39.50;29.53;;;;;;;;;;5095616;28;20550;-68
2023/04/17 07:36:22;;;;;;;41.23;31.70;;;;;;;;;;5095070;28;20489;-68
2023/04/17 07:38:50;;;;;;;39.17;30.13;;;;;;;;;;5095069;28;20546;-68
2023/04/17 07:41:17;;;;;;;35.73;28.90;;;;;;;;;;5094899;28;20437;-68
2023/04/17 07:43:45;;;;;;;40.17;30.50;;;;;;;;;;5094605;28;20475;-68
2023/04/17 07:46:13;;;;;;;37.73;29.60;;;;;;;;;;5093702;28;20450;-68
2023/04/17 07:48:40;;;;;;;41.03;30.53;;;;;;;;;;5094713;28;20939;-68
2023/04/17 07:51:07;;;;;;;34.03;28.50;;;;;;;;;;5094731;28;20447;-68
2023/04/17 07:53:36;;;;;;;38.47;27.80;;;;;;;;;;5094527;28;20925;-68
2023/04/17 07:56:03;;;;;;;32.73;26.80;;;;;;;;;;5094369;28;20452;-69
2023/04/17 07:58:30;;;;;;;32.80;27.30;;;;;;;;;;5094316;28;20476;-68
2023/04/17 08:01:00;;;;;;;34.03;24.50;;;;;;;;;;5094295;28;20929;-68
2023/04/17 08:03:28;;;;;;;31.37;24.73;;;;;;;;;;5094027;28;20481;-68
2023/04/17 08:05:56;;;;;;;30.80;25.57;;;;;;;;;;5094309;28;20450;-68
2023/04/17 08:08:23;;;;;;;29.37;23.17;;;;;;;;;;5094130;28;20980;-68
2023/04/17 08:10:51;;;;;;;27.30;23.53;;;;;;;;;;5094460;28;20443;-68
2023/04/17 08:13:18;;;;;;;41.67;28.97;;;;;;;;;;5094388;28;20456;-68
2023/04/17 08:15:45;;;;;;;24.20;20.30;;;;;;;;;;5094666;28;20856;-68
2023/04/17 08:18:14;;;;;;;26.43;20.90;;;;;;;;;;5094220;28;20538;-68
2023/04/17 08:20:41;;;;;;;27.07;20.77;;;;;;;;;;5094181;28;20463;-68
2023/04/17 08:23:08;;;;;;;28.07;21.37;;;;;;;;;;5094337;28;20870;-68
2023/04/17 08:25:36;;;;;;;27.83;20.17;;;;;;;;;;5094395;28;20439;-68
2023/04/17 08:28:03;;;;;;;25.53;20.13;;;;;;;;;;5094222;28;20444;-68
2023/04/17 08:30:30;;;;;;;24.60;18.63;;;;;;;;;;5093318;28;20770;-68
2023/04/17 08:32:57;;;;;;;27.23;20.33;;;;;;;;;;5093641;28;20802;-68
2023/04/17 08:35:26;;;;;;;23.43;19.00;;;;;;;;;;5094001;28;20447;-68
2023/04/17 08:37:55;;;;;;;25.37;17.13;;;;;;;;;;5093784;28;20470;-68
2023/04/17 08:40:24;;;;;;;21.03;16.63;;;;;;;;;;5093637;28;20498;-68
2023/04/17 08:42:52;;;;;;;21.37;17.17;;;;;;;;;;5093446;28;20439;-68
2023/04/17 08:45:20;;;;;;;21.53;17.27;;;;;;;;;;5093783;28;20534;-68
2023/04/17 08:47:47;;;;;;;22.20;16.83;;;;;;;;;;5093696;28;20501;-68
2023/04/17 08:50:15;;;;;;;25.27;17.77;;;;;;;;;;5093751;28;20474;-68
2023/04/17 08:52:45;;;;;;;27.37;17.60;;;;;;;;;;5093573;28;20481;-68
2023/04/17 08:55:13;;;;;;;25.37;20.07;;;;;;;;;;5093352;28;20449;-68
2023/04/17 08:57:57;;;;;;;20.70;16.73;;;;;;;;;;5092817;28;20473;-68
2023/04/17 09:00:27;;;;;;;26.90;17.03;;;;;;;;;;5093317;28;20949;-68
2023/04/17 09:02:55;;;;;;;22.03;16.33;;;;;;;;;;5093133;28;20456;-68
2023/04/17 09:05:23;;;;;;;18.60;16.03;;;;;;;;;;5093379;28;20520;-68
2023/04/17 09:08:06;;;;;;;19.73;15.07;;;;;;;;;;5093101;28;20455;-68
2023/04/17 09:10:36;;;;;;;15.60;12.90;;;;;;;;;;5094300;28;20476;-68
2023/04/17 09:13:03;;;;;;;14.70;13.10;;;;;;;;;;5093494;28;20444;-68
2023/04/17 09:15:31;;;;;;;20.20;12.93;;;;;;;;;;5093658;28;20535;-68
2023/04/17 09:17:58;;;;;;;17.63;13.83;;;;;;;;;;5093527;28;20482;-68
2023/04/17 09:20:25;;;;;;;14.53;13.03;;;;;;;;;;5093195;28;20430;-68
2023/04/17 09:23:00;;;;;;;16.60;13.27;;;;;;;;;;5093731;28;20493;-68
2023/04/17 09:25:27;;;;;;;16.30;13.17;;;;;;;;;;5093138;28;20422;-68
2023/04/17 09:27:55;;;;;;;14.90;13.27;;;;;;;;;;5093433;28;20450;-68
2023/04/17 09:30:25;;;;;;;15.93;12.93;;;;;;;;;;5093568;28;20786;-67
2023/04/17 09:33:03;;;;;;;14.13;11.33;;;;;;;;;;5093287;28;20449;-69
2023/04/17 09:35:30;;;;;;;19.60;14.27;;;;;;;;;;5093061;28;20442;-68
2023/04/17 09:37:58;;;;;;;14.20;12.13;;;;;;;;;;5093450;28;20476;-68
2023/04/17 09:40:27;;;;;;;18.43;13.23;;;;;;;;;;5092898;28;20440;-68
2023/04/17 09:42:56;;;;;;;14.60;11.17;;;;;;;;;;5093216;28;20437;-68
2023/04/17 09:45:23;;;;;;;14.30;11.87;;;;;;;;;;5093212;28;20465;-68
2023/04/17 09:47:51;;;;;;;15.20;10.60;;;;;;;;;;5092820;28;20438;-68
2023/04/17 09:50:21;;;;;;;15.03;11.80;;;;;;;;;;5093222;28;20442;-68
2023/04/17 09:52:49;;;;;;;19.60;11.10;;;;;;;;;;5092642;28;20446;-68
2023/04/17 09:55:16;;;;;;;18.10;11.47;;;;;;;;;;5092667;28;20931;-68
2023/04/17 09:57:45;;;;;;;14.27;11.97;;;;;;;;;;5092517;28;20530;-70
2023/04/17 10:00:13;;;;;;;14.77;11.83;;;;;;;;;;5092667;28;20475;-68
2023/04/17 10:02:42;;;;;;;13.43;11.27;;;;;;;;;;5092406;28;20445;-69
2023/04/17 10:05:11;;;;;;;14.53;11.60;;;;;;;;;;5092647;28;20911;-68
2023/04/17 10:07:39;;;;;;;14.17;11.30;;;;;;;;;;5092890;28;20951;-68
2023/04/17 10:10:08;;;;;;;13.07;10.67;;;;;;;;;;5095255;28;20481;-68
2023/04/17 10:12:36;;;;;;;13.50;11.07;;;;;;;;;;5096433;28;20431;-68
2023/04/17 10:15:06;;;;;;;12.00;10.80;;;;;;;;;;5096194;28;20525;-68
2023/04/17 10:17:34;;;;;;;13.13;10.67;;;;;;;;;;5097146;28;20469;-68
2023/04/17 10:20:20;;;;;;;15.10;11.10;;;;;;;;;;5096266;28;20446;-68
2023/04/17 10:22:48;;;;;;;12.87;11.33;;;;;;;;;;5096631;28;20485;-68
2023/04/17 10:25:19;;;;;;;13.87;11.67;;;;;;;;;;5096656;28;20443;-68
2023/04/17 10:27:48;;;;;;;13.67;11.27;;;;;;;;;;5096683;28;20443;-68
2023/04/17 10:30:16;;;;;;;13.03;10.57;;;;;;;;;;5096292;28;20457;-68
2023/04/17 10:32:45;;;;;;;11.03;9.90;;;;;;;;;;5096075;28;20453;-68
2023/04/17 10:35:27;;;;;;;12.60;10.60;;;;;;;;;;5096254;28;20437;-68
2023/04/17 10:38:07;;;;;;;17.30;9.83;;;;;;;;;;5095743;28;20475;-68
2023/04/17 10:40:35;;;;;;;12.70;9.93;;;;;;;;;;5096108;28;20447;-68
2023/04/17 10:43:03;;;;;;;15.60;10.77;;;;;;;;;;5096161;28;20806;-68
2023/04/17 10:45:45;;;;;;;13.30;11.00;;;;;;;;;;5096043;28;20450;-68
2023/04/17 10:48:21;;;;;;;13.20;10.17;;;;;;;;;;5095845;28;20453;-68
2023/04/17 10:50:49;;;;;;;12.30;10.17;;;;;;;;;;5096055;28;20487;-68
2023/04/17 10:53:34;;;;;;;10.80;9.50;;;;;;;;;;5095994;28;20445;-68
2023/04/17 10:56:03;;;;;;;12.10;10.10;;;;;;;;;;5095926;28;20522;-68
2023/04/17 10:58:31;;;;;;;16.30;11.47;;;;;;;;;;5095797;28;20714;-69
2023/04/17 11:01:02;;;;;;;17.30;11.00;;;;;;;;;;5095815;28;20470;-68
2023/04/17 11:03:31;;;;;;;13.03;10.90;;;;;;;;;;5095635;28;20478;-69
2023/04/17 11:05:59;;;;;;;10.70;9.37;;;;;;;;;;5096061;28;20525;-68
2023/04/17 11:08:27;;;;;;;15.53;10.47;;;;;;;;;;5095694;28;20469;-68
2023/04/17 11:10:54;;;;;;;12.43;9.87;;;;;;;;;;5095564;28;20803;-68
2023/04/17 11:13:21;;;;;;;13.03;9.90;;;;;;;;;;5095287;28;20528;-68
2023/04/17 11:15:48;;;;;;;13.70;10.00;;;;;;;;;;5095453;28;20496;-68
2023/04/17 11:18:15;;;;;;;12.63;10.07;;;;;;;;;;5095108;28;20520;-68
2023/04/17 11:20:45;;;;;;;11.13;9.93;;;;;;;;;;5094734;28;20461;-68
2023/04/17 11:23:12;;;;;;;12.30;10.13;;;;;;;;;;5095351;28;20495;-68
2023/04/17 11:25:40;;;;;;;12.93;10.93;;;;;;;;;;5095565;28;20443;-68
2023/04/17 11:28:08;;;;;;;11.90;9.80;;;;;;;;;;5095148;28;20546;-68
2023/04/17 11:30:35;;;;;;;15.13;10.20;;;;;;;;;;5095105;28;20537;-68
2023/04/17 11:33:03;;;;;;;14.80;10.20;;;;;;;;;;5094942;28;20942;-68
2023/04/17 11:35:32;;;;;;;11.60;10.37;;;;;;;;;;5095006;28;20465;-68
2023/04/17 11:38:16;;;;;;;11.97;9.60;;;;;;;;;;5095256;28;20482;-68
2023/04/17 11:40:47;;;;;;;13.13;10.33;;;;;;;;;;5095164;28;20445;-68
2023/04/17 11:43:15;;;;;;;12.13;10.67;;;;;;;;;;5095043;28;20447;-68
2023/04/17 11:45:42;;;;;;;12.07;10.00;;;;;;;;;;5094815;28;20533;-68
2023/04/17 11:48:11;;;;;;;12.90;10.77;;;;;;;;;;5094935;28;20489;-68
2023/04/17 11:50:38;;;;;;;11.23;9.83;;;;;;;;;;5094416;28;20496;-68
2023/04/17 11:53:05;;;;;;;12.80;9.50;;;;;;;;;;5095019;28;20805;-68
2023/04/17 11:55:34;;;;;;;11.20;9.50;;;;;;;;;;5094279;28;20434;-68
2023/04/17 11:58:02;;;;;;;10.03;9.00;;;;;;;;;;5094571;28;20513;-68
2023/04/17 12:00:30;;;;;;;12.17;9.50;;;;;;;;;;5094530;28;20529;-68
2023/04/17 12:02:58;;;;;;;12.03;10.03;;;;;;;;;;5095171;28;20471;-68
2023/04/17 12:05:26;;;;;;;10.43;9.27;;;;;;;;;;5094276;28;20454;-68
2023/04/17 12:08:00;;;;;;;17.83;8.47;;;;;;;;;;5094514;28;20447;-68
2023/04/17 12:10:37;;;;;;;11.47;8.40;;;;;;;;;;5094112;28;20434;-68
2023/04/17 12:13:05;;;;;;;11.80;9.10;;;;;;;;;;5094489;28;20784;-67
2023/04/17 12:15:32;;;;;;;12.87;8.83;;;;;;;;;;5094435;28;20804;-68
2023/04/17 12:18:01;;;;;;;11.90;9.93;;;;;;;;;;5093878;28;20481;-68
2023/04/17 12:20:29;;;;;;;11.80;8.80;;;;;;;;;;5094227;28;20863;-68
2023/04/17 12:22:56;;;;;;;13.37;8.73;;;;;;;;;;5094255;28;20449;-68
2023/04/17 12:25:23;;;;;;;8.97;7.73;;;;;;;;;;5094158;28;20508;-68
2023/04/17 12:27:51;;;;;;;13.93;8.23;;;;;;;;;;5093867;28;20439;-68
2023/04/17 12:30:19;;;;;;;12.00;10.00;;;;;;;;;;5094119;28;20441;-68
2023/04/17 12:32:47;;;;;;;8.90;8.00;;;;;;;;;;5093470;28;20443;-69
2023/04/17 12:35:15;;;;;;;12.80;8.67;;;;;;;;;;5094208;28;20447;-69
2023/04/17 12:37:47;;;;;;;8.80;7.67;;;;;;;;;;5094192;28;20466;-68
2023/04/17 12:40:14;;;;;;;11.10;9.40;;;;;;;;;;5093606;28;20427;-69
2023/04/17 12:42:41;;;;;;;11.20;8.20;;;;;;;;;;5093885;28;20442;-68
2023/04/17 12:45:10;;;;;;;10.77;7.77;;;;;;;;;;5093463;28;20447;-68
2023/04/17 12:47:39;;;;;;;8.57;7.63;;;;;;;;;;5093497;28;20447;-68
2023/04/17 12:50:07;;;;;;;12.00;9.80;;;;;;;;;;5093616;28;20819;-69
2023/04/17 12:52:34;;;;;;;9.23;8.00;;;;;;;;;;5093385;28;20446;-69
2023/04/17 12:55:02;;;;;;;9.80;8.80;;;;;;;;;;5077541;28;20459;-69
2023/04/17 12:57:29;;;;;;;15.10;11.03;;;;;;;;;;5073382;28;20475;-75
2023/04/17 12:59:57;;;;;;;10.60;9.27;;;;;;;;;;5073130;28;20560;-70
2023/04/17 13:02:25;;;;;;;12.27;8.40;;;;;;;;;;5072959;28;20449;-69
2023/04/17 13:04:52;;;;;;;11.00;8.87;;;;;;;;;;5074016;28;20470;-69
2023/04/17 13:07:20;;;;;;;12.60;9.17;;;;;;;;;;5072940;28;20925;-69
2023/04/17 13:09:54;;;;;;;14.27;9.20;;;;;;;;;;5073384;28;20448;-67
2023/04/17 13:12:21;;;;;;;11.60;8.07;;;;;;;;;;5073044;28;20423;-67
2023/04/17 13:14:48;;;;;;;33.93;18.33;;;;;;;;;;5073346;28;20521;-69
2023/04/17 13:17:15;;;;;;;15.40;9.70;;;;;;;;;;5072709;28;20430;-67
2023/04/17 13:19:44;;;;;;;12.10;9.37;;;;;;;;;;5080060;28;20485;-68
2023/04/17 13:22:11;;;;;;;10.90;9.80;;;;;;;;;;5092575;28;20885;-67
2023/04/17 13:24:39;;;;;;;22.70;13.10;;;;;;;;;;5093329;28;20441;-67
2023/04/17 13:27:06;;;;;;;16.93;11.37;;;;;;;;;;5093335;28;20454;-67
2023/04/17 13:29:33;;;;;;;50.77;20.00;;;;;;;;;;5092864;28;20473;-67
2023/04/17 13:32:00;;;;;;;15.67;11.80;;;;;;;;;;5093155;28;20443;-68
2023/04/17 13:34:27;;;;;;;16.73;12.30;;;;;;;;;;5092786;28;20915;-66
2023/04/17 13:36:56;;;;;;;20.03;11.50;;;;;;;;;;5092882;28;20991;-66
2023/04/17 13:39:24;;;;;;;15.17;10.03;;;;;;;;;;5092732;28;20979;-67
2023/04/17 13:41:51;;;;;;;14.50;10.43;;;;;;;;;;5093238;28;20773;-67
2023/04/17 13:44:18;;;;;;;19.73;12.13;;;;;;;;;;5096351;28;20446;-67
2023/04/17 13:46:45;;;;;;;26.17;16.00;;;;;;;;;;5096754;28;20529;-68
2023/04/17 13:49:13;;;;;;;18.80;11.13;;;;;;;;;;5096744;28;20878;-68
2023/04/17 13:51:40;;;;;;;18.03;11.30;;;;;;;;;;5097166;28;20526;-67
2023/04/17 13:54:10;;;;;;;12.13;9.03;;;;;;;;;;5096613;28;20592;-66
2023/04/17 13:56:37;;;;;;;32.00;14.80;;;;;;;;;;5095977;28;20447;-68
2023/04/17 13:59:05;;;;;;;13.77;10.20;;;;;;;;;;5096701;28;20470;-67
2023/04/17 14:01:32;;;;;;;16.53;11.90;;;;;;;;;;5096772;28;20496;-67
2023/04/17 14:04:00;;;;;;;16.10;9.93;;;;;;;;;;5096773;28;20505;-67
2023/04/17 14:06:27;;;;;;;19.40;12.70;;;;;;;;;;5096631;28;20443;-67
2023/04/17 14:08:54;;;;;;;12.77;11.00;;;;;;;;;;5096546;28;21033;-67
2023/04/17 14:11:23;;;;;;;14.77;11.20;;;;;;;;;;5096267;28;20447;-67
2023/04/17 14:13:50;;;;;;;12.23;9.90;;;;;;;;;;5096893;28;20435;-67
2023/04/17 14:16:17;;;;;;;14.40;10.90;;;;;;;;;;5096184;28;20442;-66
2023/04/17 14:18:46;;;;;;;10.47;9.47;;;;;;;;;;5096138;28;20473;-66
2023/04/17 14:21:14;;;;;;;11.87;9.57;;;;;;;;;;5096346;28;20438;-67
2023/04/17 14:23:41;;;;;;;11.17;8.27;;;;;;;;;;5096329;28;21010;-67